You are listening to:
KLGB Ground - Long Beach, California, United States

KLGB 151453Z 00000KT 6SM HZ BKN006 19/16 A2986 RMK AO2 SLP109 T01890156 53004

If stream doesn't start automatically press the play button
If stream stops then reload player then press play